sensor_id;sensor_type;location;lat;lon;timestamp;pressure;altitude;pressure_sealevel;temperature;humidity
79309;BME280;68767;53.078;7.386;2023-10-13T00:00:40;101366.91;;;13.99;100.00
79309;BME280;68767;53.078;7.386;2023-10-13T00:03:08;101358.94;;;14.02;100.00
79309;BME280;68767;53.078;7.386;2023-10-13T00:05:46;101362.69;;;14.10;100.00
79309;BME280;68767;53.078;7.386;2023-10-13T00:08:14;101357.13;;;14.15;100.00
79309;BME280;68767;53.078;7.386;2023-10-13T00:10:42;101349.00;;;14.15;100.00
79309;BME280;68767;53.078;7.386;2023-10-13T00:13:09;101346.69;;;14.26;100.00
79309;BME280;68767;53.078;7.386;2023-10-13T00:15:44;101349.69;;;14.33;100.00
79309;BME280;68767;53.078;7.386;2023-10-13T00:18:27;101343.78;;;14.31;100.00
79309;BME280;68767;53.078;7.386;2023-10-13T00:21:01;101347.09;;;14.37;100.00
79309;BME280;68767;53.078;7.386;2023-10-13T00:23:36;101343.41;;;14.41;100.00
79309;BME280;68767;53.078;7.386;2023-10-13T00:26:03;101347.38;;;14.44;100.00
79309;BME280;68767;53.078;7.386;2023-10-13T00:28:30;101350.56;;;14.46;100.00
79309;BME280;68767;53.078;7.386;2023-10-13T00:31:10;101348.56;;;14.55;100.00
79309;BME280;68767;53.078;7.386;2023-10-13T00:33:38;101342.19;;;14.59;100.00
79309;BME280;68767;53.078;7.386;2023-10-13T00:36:08;101332.47;;;14.58;100.00
79309;BME280;68767;53.078;7.386;2023-10-13T00:38:43;101334.19;;;14.63;100.00
79309;BME280;68767;53.078;7.386;2023-10-13T00:41:15;101337.81;;;14.67;100.00
79309;BME280;68767;53.078;7.386;2023-10-13T00:43:47;101331.09;;;14.73;100.00
79309;BME280;68767;53.078;7.386;2023-10-13T00:46:34;101322.75;;;14.78;100.00
79309;BME280;68767;53.078;7.386;2023-10-13T00:49:03;101320.97;;;14.82;100.00
79309;BME280;68767;53.078;7.386;2023-10-13T00:51:31;101313.66;;;14.83;100.00
79309;BME280;68767;53.078;7.386;2023-10-13T00:54:17;101313.91;;;14.90;100.00
79309;BME280;68767;53.078;7.386;2023-10-13T00:56:46;101314.44;;;14.96;100.00
79309;BME280;68767;53.078;7.386;2023-10-13T00:59:24;101311.88;;;14.99;100.00
79309;BME280;68767;53.078;7.386;2023-10-13T01:01:52;101306.59;;;15.03;100.00
79309;BME280;68767;53.078;7.386;2023-10-13T01:04:22;101302.63;;;15.00;100.00
79309;BME280;68767;53.078;7.386;2023-10-13T01:06:54;101298.81;;;15.01;100.00
79309;BME280;68767;53.078;7.386;2023-10-13T01:09:21;101285.72;;;15.03;100.00
79309;BME280;68767;53.078;7.386;2023-10-13T01:11:51;101294.41;;;15.09;100.00
79309;BME280;68767;53.078;7.386;2023-10-13T01:14:20;101292.06;;;15.07;100.00
79309;BME280;68767;53.078;7.386;2023-10-13T01:16:48;101291.28;;;15.07;100.00
79309;BME280;68767;53.078;7.386;2023-10-13T01:19:19;101299.94;;;15.12;100.00
79309;BME280;68767;53.078;7.386;2023-10-13T01:21:52;101298.81;;;15.13;100.00
79309;BME280;68767;53.078;7.386;2023-10-13T01:24:30;101289.47;;;15.11;100.00
79309;BME280;68767;53.078;7.386;2023-10-13T01:27:05;101295.00;;;15.14;100.00
79309;BME280;68767;53.078;7.386;2023-10-13T01:29:46;101286.53;;;15.16;100.00
79309;BME280;68767;53.078;7.386;2023-10-13T01:32:30;101286.53;;;15.16;100.00
79309;BME280;68767;53.078;7.386;2023-10-13T01:34:58;101284.38;;;15.22;100.00
79309;BME280;68767;53.078;7.386;2023-10-13T01:37:32;101280.25;;;15.24;100.00
79309;BME280;68767;53.078;7.386;2023-10-13T01:40:00;101283.84;;;15.28;100.00
79309;BME280;68767;53.078;7.386;2023-10-13T01:42:27;101269.50;;;15.28;100.00
79309;BME280;68767;53.078;7.386;2023-10-13T01:44:57;101258.81;;;15.31;100.00
79309;BME280;68767;53.078;7.386;2023-10-13T01:47:33;101257.34;;;15.34;100.00
79309;BME280;68767;53.078;7.386;2023-10-13T01:50:00;101256.22;;;15.35;100.00
79309;BME280;68767;53.078;7.386;2023-10-13T01:52:41;101251.25;;;15.37;100.00
79309;BME280;68767;53.078;7.386;2023-10-13T01:55:09;101252.16;;;15.41;100.00
79309;BME280;68767;53.078;7.386;2023-10-13T01:57:38;101243.34;;;15.44;100.00
79309;BME280;68767;53.078;7.386;2023-10-13T02:00:08;101241.06;;;15.46;100.00
79309;BME280;68767;53.078;7.386;2023-10-13T02:02:46;101231.03;;;15.46;100.00
79309;BME280;68767;53.078;7.386;2023-10-13T02:05:14;101238.84;;;15.48;100.00
79309;BME280;68767;53.078;7.386;2023-10-13T02:07:43;101225.50;;;15.55;100.00
79309;BME280;68767;53.078;7.386;2023-10-13T02:10:13;101235.53;;;15.55;100.00
79309;BME280;68767;53.078;7.386;2023-10-13T02:12:40;101231.72;;;15.56;100.00
79309;BME280;68767;53.078;7.386;2023-10-13T02:15:13;101229.91;;;15.60;100.00
79309;BME280;68767;53.078;7.386;2023-10-13T02:17:53;101231.81;;;15.59;100.00
79309;BME280;68767;53.078;7.386;2023-10-13T02:20:22;101220.53;;;15.57;100.00
79309;BME280;68767;53.078;7.386;2023-10-13T02:22:58;101212.97;;;15.63;100.00
79309;BME280;68767;53.078;7.386;2023-10-13T02:25:25;101206.00;;;15.62;100.00
79309;BME280;68767;53.078;7.386;2023-10-13T02:28:13;101205.88;;;15.58;100.00
79309;BME280;68767;53.078;7.386;2023-10-13T02:30:41;101212.19;;;15.62;100.00
79309;BME280;68767;53.078;7.386;2023-10-13T02:33:12;101208.03;;;15.65;100.00
79309;BME280;68767;53.078;7.386;2023-10-13T02:35:42;101199.91;;;15.65;100.00
79309;BME280;68767;53.078;7.386;2023-10-13T02:38:16;101196.72;;;15.63;100.00
79309;BME280;68767;53.078;7.386;2023-10-13T02:40:56;101198.34;;;15.64;100.00
79309;BME280;68767;53.078;7.386;2023-10-13T02:43:35;101188.38;;;15.68;100.00
79309;BME280;68767;53.078;7.386;2023-10-13T02:46:04;101191.00;;;15.64;100.00
79309;BME280;68767;53.078;7.386;2023-10-13T02:48:31;101181.28;;;15.63;100.00
79309;BME280;68767;53.078;7.386;2023-10-13T02:51:08;101182.97;;;15.68;100.00
79309;BME280;68767;53.078;7.386;2023-10-13T02:53:45;101173.25;;;15.67;100.00
79309;BME280;68767;53.078;7.386;2023-10-13T02:56:16;101178.34;;;15.68;100.00
79309;BME280;68767;53.078;7.386;2023-10-13T02:58:52;101170.66;;;15.70;100.00
79309;BME280;68767;53.078;7.386;2023-10-13T03:01:40;101162.09;;;15.68;100.00
79309;BME280;68767;53.078;7.386;2023-10-13T03:04:07;101157.34;;;15.65;100.00
79309;BME280;68767;53.078;7.386;2023-10-13T03:06:36;101166.38;;;15.69;100.00
79309;BME280;68767;53.078;7.386;2023-10-13T03:09:08;101158.22;;;15.69;100.00
79309;BME280;68767;53.078;7.386;2023-10-13T03:11:42;101157.09;;;15.70;100.00
79309;BME280;68767;53.078;7.386;2023-10-13T03:16:56;101154.75;;;15.69;100.00
79309;BME280;68767;53.078;7.386;2023-10-13T03:19:32;101142.78;;;15.70;100.00
79309;BME280;68767;53.078;7.386;2023-10-13T03:22:03;101148.63;;;15.72;100.00
79309;BME280;68767;53.078;7.386;2023-10-13T03:24:39;101152.03;;;15.69;100.00
79309;BME280;68767;53.078;7.386;2023-10-13T03:27:17;101151.69;;;15.70;100.00
79309;BME280;68767;53.078;7.386;2023-10-13T03:29:45;101150.53;;;15.71;100.00
79309;BME280;68767;53.078;7.386;2023-10-13T03:32:22;101142.41;;;15.71;100.00
79309;BME280;68767;53.078;7.386;2023-10-13T03:34:53;101144.03;;;15.72;100.00
79309;BME280;68767;53.078;7.386;2023-10-13T03:37:27;101137.25;;;15.66;100.00
79309;BME280;68767;53.078;7.386;2023-10-13T03:40:15;101133.50;;;15.71;100.00
79309;BME280;68767;53.078;7.386;2023-10-13T03:42:58;101124.94;;;15.69;100.00
79309;BME280;68767;53.078;7.386;2023-10-13T03:45:37;101118.75;;;15.68;100.00
79309;BME280;68767;53.078;7.386;2023-10-13T03:48:10;101113.75;;;15.70;100.00
79309;BME280;68767;53.078;7.386;2023-10-13T03:51:01;101118.38;;;15.70;100.00
79309;BME280;68767;53.078;7.386;2023-10-13T03:53:36;101107.13;;;15.68;100.00
79309;BME280;68767;53.078;7.386;2023-10-13T03:56:17;101100.56;;;15.69;100.00
79309;BME280;68767;53.078;7.386;2023-10-13T03:58:58;101091.66;;;15.68;100.00
79309;BME280;68767;53.078;7.386;2023-10-13T04:01:31;101092.34;;;15.65;100.00
79309;BME280;68767;53.078;7.386;2023-10-13T04:03:59;101087.81;;;15.69;100.00
79309;BME280;68767;53.078;7.386;2023-10-13T04:06:38;101088.50;;;15.66;100.00
79309;BME280;68767;53.078;7.386;2023-10-13T04:09:19;101078.81;;;15.65;100.00
79309;BME280;68767;53.078;7.386;2023-10-13T04:12:06;101077.31;;;15.68;100.00
79309;BME280;68767;53.078;7.386;2023-10-13T04:14:41;101064.56;;;15.68;100.00
79309;BME280;68767;53.078;7.386;2023-10-13T04:17:08;101067.19;;;15.65;100.00
79309;BME280;68767;53.078;7.386;2023-10-13T04:19:41;101055.09;;;15.62;100.00
79309;BME280;68767;53.078;7.386;2023-10-13T04:22:27;101055.66;;;15.68;100.00
79309;BME280;68767;53.078;7.386;2023-10-13T04:25:16;101043.13;;;15.63;100.00
79309;BME280;68767;53.078;7.386;2023-10-13T04:28:07;101040.09;;;15.65;100.00
79309;BME280;68767;53.078;7.386;2023-10-13T04:30:44;101035.91;;;15.67;100.00
79309;BME280;68767;53.078;7.386;2023-10-13T04:33:33;101024.63;;;15.65;100.00
79309;BME280;68767;53.078;7.386;2023-10-13T04:36:11;101025.00;;;15.64;100.00
79309;BME280;68767;53.078;7.386;2023-10-13T04:38:55;101024.63;;;15.65;100.00
79309;BME280;68767;53.078;7.386;2023-10-13T04:41:28;101012.66;;;15.66;100.00
79309;BME280;68767;53.078;7.386;2023-10-13T04:44:14;101009.06;;;15.62;100.00
79309;BME280;68767;53.078;7.386;2023-10-13T04:46:58;101001.41;;;15.64;100.00
79309;BME280;68767;53.078;7.386;2023-10-13T04:49:31;100992.03;;;15.62;100.00
79309;BME280;68767;53.078;7.386;2023-10-13T04:52:02;100997.44;;;15.62;100.00
79309;BME280;68767;53.078;7.386;2023-10-13T04:54:37;100975.31;;;15.60;100.00
79309;BME280;68767;53.078;7.386;2023-10-13T04:57:22;100975.31;;;15.60;100.00
79309;BME280;68767;53.078;7.386;2023-10-13T05:00:00;100959.53;;;15.62;100.00
79309;BME280;68767;53.078;7.386;2023-10-13T05:02:31;100948.94;;;15.57;100.00
79309;BME280;68767;53.078;7.386;2023-10-13T05:05:14;100955.13;;;15.57;100.00
79309;BME280;68767;53.078;7.386;2023-10-13T05:07:41;100952.06;;;15.59;100.00
79309;BME280;68767;53.078;7.386;2023-10-13T05:10:28;100950.63;;;15.61;100.00
79309;BME280;68767;53.078;7.386;2023-10-13T05:13:13;100951.72;;;15.60;100.00
79309;BME280;68767;53.078;7.386;2023-10-13T05:15:59;100939.78;;;15.61;100.00
79309;BME280;68767;53.078;7.386;2023-10-13T05:18:45;100929.63;;;15.58;100.00
79309;BME280;68767;53.078;7.386;2023-10-13T05:21:31;100927.34;;;15.60;100.00
79309;BME280;68767;53.078;7.386;2023-10-13T05:24:16;100922.28;;;15.59;100.00
79309;BME280;68767;53.078;7.386;2023-10-13T05:27:03;100937.41;;;15.60;100.00
79309;BME280;68767;53.078;7.386;2023-10-13T05:29:49;100928.94;;;15.61;100.00
79309;BME280;68767;53.078;7.386;2023-10-13T05:32:35;100918.44;;;15.60;100.00
79309;BME280;68767;53.078;7.386;2023-10-13T05:35:22;100892.13;;;15.60;100.00
79309;BME280;68767;53.078;7.386;2023-10-13T05:38:07;100897.56;;;15.60;100.00
79309;BME280;68767;53.078;7.386;2023-10-13T05:40:53;100884.97;;;15.52;100.00
79309;BME280;68767;53.078;7.386;2023-10-13T05:43:44;100884.72;;;15.57;100.00
79309;BME280;68767;53.078;7.386;2023-10-13T05:46:31;100880.78;;;15.55;100.00
79309;BME280;68767;53.078;7.386;2023-10-13T05:49:06;100881.13;;;15.53;100.00
79309;BME280;68767;53.078;7.386;2023-10-13T05:51:39;100876.97;;;15.56;100.00
79309;BME280;68767;53.078;7.386;2023-10-13T05:54:06;100864.97;;;15.57;100.00
79309;BME280;68767;53.078;7.386;2023-10-13T05:56:49;100845.13;;;15.53;100.00
79309;BME280;68767;53.078;7.386;2023-10-13T05:59:37;100843.56;;;15.52;100.00
79309;BME280;68767;53.078;7.386;2023-10-13T06:02:24;100835.38;;;15.48;100.00
79309;BME280;68767;53.078;7.386;2023-10-13T06:05:11;100827.84;;;15.41;100.00
79309;BME280;68767;53.078;7.386;2023-10-13T06:07:58;100824.38;;;15.41;100.00
79309;BME280;68767;53.078;7.386;2023-10-13T06:10:45;100821.66;;;15.41;100.00
79309;BME280;68767;53.078;7.386;2023-10-13T06:13:31;100818.50;;;15.39;100.00
79309;BME280;68767;53.078;7.386;2023-10-13T06:16:17;100817.81;;;15.42;100.00
79309;BME280;68767;53.078;7.386;2023-10-13T06:19:03;100806.56;;;15.40;100.00
79309;BME280;68767;53.078;7.386;2023-10-13T06:21:49;100804.28;;;15.42;100.00
79309;BME280;68767;53.078;7.386;2023-10-13T06:24:35;100811.63;;;15.41;100.00
79309;BME280;68767;53.078;7.386;2023-10-13T06:27:21;100809.69;;;15.42;100.00
79309;BME280;68767;53.078;7.386;2023-10-13T06:30:07;100806.97;;;15.42;100.00
79309;BME280;68767;53.078;7.386;2023-10-13T06:32:34;100795.38;;;15.41;100.00
79309;BME280;68767;53.078;7.386;2023-10-13T06:35:02;100807.66;;;15.39;100.00
79309;BME280;68767;53.078;7.386;2023-10-13T06:37:34;100806.63;;;15.43;100.00
79309;BME280;68767;53.078;7.386;2023-10-13T06:40:03;100806.19;;;15.41;100.00
79309;BME280;68767;53.078;7.386;2023-10-13T06:42:49;100814.31;;;15.41;100.00
79309;BME280;68767;53.078;7.386;2023-10-13T06:45:16;100803.06;;;15.39;100.00
79309;BME280;68767;53.078;7.386;2023-10-13T06:47:47;100799.22;;;15.40;100.00
79309;BME280;68767;53.078;7.386;2023-10-13T06:50:19;100796.94;;;15.42;100.00
79309;BME280;68767;53.078;7.386;2023-10-13T06:52:46;100806.97;;;15.42;100.00
79309;BME280;68767;53.078;7.386;2023-10-13T06:55:17;100803.91;;;15.43;100.00
79309;BME280;68767;53.078;7.386;2023-10-13T06:57:50;100801.22;;;15.43;100.00
79309;BME280;68767;53.078;7.386;2023-10-13T07:00:18;100798.16;;;15.45;100.00
79309;BME280;68767;53.078;7.386;2023-10-13T07:02:56;100808.19;;;15.44;100.00
79309;BME280;68767;53.078;7.386;2023-10-13T07:05:37;100802.09;;;15.48;100.00
79309;BME280;68767;53.078;7.386;2023-10-13T07:08:06;100800.19;;;15.48;100.00
79309;BME280;68767;53.078;7.386;2023-10-13T07:10:33;100812.22;;;15.51;100.00
79309;BME280;68767;53.078;7.386;2023-10-13T07:13:15;100805.66;;;15.52;100.00
79309;BME280;68767;53.078;7.386;2023-10-13T07:15:44;100810.72;;;15.53;100.00
79309;BME280;68767;53.078;7.386;2023-10-13T07:18:15;100806.09;;;15.54;100.00
79309;BME280;68767;53.078;7.386;2023-10-13T07:20:44;100814.31;;;15.57;100.00
79309;BME280;68767;53.078;7.386;2023-10-13T07:23:12;100815.88;;;15.58;100.00
79309;BME280;68767;53.078;7.386;2023-10-13T07:25:55;100817.44;;;15.59;100.00
79309;BME280;68767;53.078;7.386;2023-10-13T07:28:24;100820.72;;;15.65;100.00
79309;BME280;68767;53.078;7.386;2023-10-13T07:30:51;100823.50;;;15.68;100.00
79309;BME280;68767;53.078;7.386;2023-10-13T07:33:21;100816.56;;;15.71;100.00
79309;BME280;68767;53.078;7.386;2023-10-13T07:35:59;100808.91;;;15.73;100.00
79309;BME280;68767;53.078;7.386;2023-10-13T07:38:27;100790.81;;;15.77;100.00
79309;BME280;68767;53.078;7.386;2023-10-13T07:40:59;100798.22;;;15.80;100.00
79309;BME280;68767;53.078;7.386;2023-10-13T07:43:34;100790.91;;;15.81;100.00
79309;BME280;68767;53.078;7.386;2023-10-13T07:46:01;100793.25;;;15.82;100.00
79309;BME280;68767;53.078;7.386;2023-10-13T07:48:37;100801.81;;;15.84;100.00
79309;BME280;68767;53.078;7.386;2023-10-13T07:51:07;100795.59;;;15.84;100.00
79309;BME280;68767;53.078;7.386;2023-10-13T07:53:43;100788.50;;;15.79;100.00
79309;BME280;68767;53.078;7.386;2023-10-13T07:56:10;100790.09;;;15.80;100.00
79309;BME280;68767;53.078;7.386;2023-10-13T07:58:41;100786.59;;;15.80;100.00
79309;BME280;68767;53.078;7.386;2023-10-13T08:01:19;100790.53;;;15.82;100.00
79309;BME280;68767;53.078;7.386;2023-10-13T08:03:47;100781.63;;;15.82;100.00
79309;BME280;68767;53.078;7.386;2023-10-13T08:06:17;100773.81;;;15.80;100.00
79309;BME280;68767;53.078;7.386;2023-10-13T08:08:48;100774.53;;;15.77;100.00
79309;BME280;68767;53.078;7.386;2023-10-13T08:11:21;100765.28;;;15.78;100.00
79309;BME280;68767;53.078;7.386;2023-10-13T08:13:55;100757.50;;;15.77;100.00
79309;BME280;68767;53.078;7.386;2023-10-13T08:17:00;100762.06;;;15.72;100.00
79309;BME280;68767;53.078;7.386;2023-10-13T08:19:28;100769.84;;;15.74;100.00
79309;BME280;68767;53.078;7.386;2023-10-13T08:21:59;100776.47;;;15.77;100.00
79309;BME280;68767;53.078;7.386;2023-10-13T08:24:48;100764.84;;;15.76;100.00
79309;BME280;68767;53.078;7.386;2023-10-13T08:27:20;100749.38;;;15.77;100.00
79309;BME280;68767;53.078;7.386;2023-10-13T08:30:07;100738.91;;;15.75;100.00
79309;BME280;68767;53.078;7.386;2023-10-13T08:32:52;100711.81;;;15.75;100.00
79309;BME280;68767;53.078;7.386;2023-10-13T08:35:25;100710.31;;;15.78;100.00
79309;BME280;68767;53.078;7.386;2023-10-13T08:38:02;100713.44;;;15.80;100.00
79309;BME280;68767;53.078;7.386;2023-10-13T08:40:58;100694.84;;;15.78;100.00
79309;BME280;68767;53.078;7.386;2023-10-13T08:43:43;100708.53;;;15.85;100.00
79309;BME280;68767;53.078;7.386;2023-10-13T08:46:18;100692.81;;;15.91;100.00
79309;BME280;68767;53.078;7.386;2023-10-13T08:48:58;100699.06;;;15.95;100.00
79309;BME280;68767;53.078;7.386;2023-10-13T08:51:42;100692.94;;;15.98;100.00
79309;BME280;68767;53.078;7.386;2023-10-13T08:54:17;100689.94;;;16.03;100.00
79309;BME280;68767;53.078;7.386;2023-10-13T08:57:01;100674.47;;;16.04;100.00
79309;BME280;68767;53.078;7.386;2023-10-13T08:59:55;100659.06;;;16.08;100.00
79309;BME280;68767;53.078;7.386;2023-10-13T09:02:22;100670.03;;;16.15;100.00
79309;BME280;68767;53.078;7.386;2023-10-13T09:05:10;100658.97;;;16.23;100.00
79309;BME280;68767;53.078;7.386;2023-10-13T09:07:57;100667.53;;;16.25;100.00
79309;BME280;68767;53.078;7.386;2023-10-13T09:10:38;100660.22;;;16.29;100.00
79309;BME280;68767;53.078;7.386;2023-10-13T09:13:11;100650.59;;;16.32;100.00
79309;BME280;68767;53.078;7.386;2023-10-13T09:15:47;100648.25;;;16.31;100.00
79309;BME280;68767;53.078;7.386;2023-10-13T09:18:28;100652.22;;;16.37;100.00
79309;BME280;68767;53.078;7.386;2023-10-13T09:21:16;100645.38;;;16.43;100.00
79309;BME280;68767;53.078;7.386;2023-10-13T09:24:02;100638.91;;;16.51;100.00
79309;BME280;68767;53.078;7.386;2023-10-13T09:26:59;100640.56;;;16.55;100.00
79309;BME280;68767;53.078;7.386;2023-10-13T09:29:28;100634.91;;;16.64;100.00
79309;BME280;68767;53.078;7.386;2023-10-13T09:32:01;100630.75;;;16.70;100.00
79309;BME280;68767;53.078;7.386;2023-10-13T09:34:30;100635.09;;;16.75;100.00
79309;BME280;68767;53.078;7.386;2023-10-13T09:37:02;100627.84;;;16.82;100.00
79309;BME280;68767;53.078;7.386;2023-10-13T09:39:33;100619.72;;;16.82;100.00
79309;BME280;68767;53.078;7.386;2023-10-13T09:42:19;100626.41;;;16.89;100.00
79309;BME280;68767;53.078;7.386;2023-10-13T09:44:50;100630.72;;;16.93;100.00
79309;BME280;68767;53.078;7.386;2023-10-13T09:47:21;100613.66;;;16.93;100.00
79309;BME280;68767;53.078;7.386;2023-10-13T09:49:59;100602.44;;;16.94;100.00
79309;BME280;68767;53.078;7.386;2023-10-13T09:52:33;100593.09;;;16.92;100.00
79309;BME280;68767;53.078;7.386;2023-10-13T09:55:16;100588.84;;;16.94;100.00
79309;BME280;68767;53.078;7.386;2023-10-13T09:57:51;100628.84;;;16.97;100.00
79309;BME280;68767;53.078;7.386;2023-10-13T10:00:28;100591.69;;;17.01;100.00
79309;BME280;68767;53.078;7.386;2023-10-13T10:03:01;100587.81;;;17.02;100.00
79309;BME280;68767;53.078;7.386;2023-10-13T10:05:42;100593.72;;;17.08;100.00
79309;BME280;68767;53.078;7.386;2023-10-13T10:08:25;100589.94;;;17.16;100.00
79309;BME280;68767;53.078;7.386;2023-10-13T10:11:07;100581.53;;;17.25;100.00
79309;BME280;68767;53.078;7.386;2023-10-13T10:13:39;100582.41;;;17.32;100.00
79309;BME280;68767;53.078;7.386;2023-10-13T10:16:15;100601.81;;;17.34;100.00
79309;BME280;68767;53.078;7.386;2023-10-13T10:18:46;100593.38;;;17.39;100.00
79309;BME280;68767;53.078;7.386;2023-10-13T10:21:14;100582.13;;;17.41;100.00
79309;BME280;68767;53.078;7.386;2023-10-13T10:23:52;100563.97;;;17.49;100.00
79309;BME280;68767;53.078;7.386;2023-10-13T10:26:20;100557.47;;;17.57;100.00
79309;BME280;68767;53.078;7.386;2023-10-13T10:28:47;100576.94;;;17.62;100.00
79309;BME280;68767;53.078;7.386;2023-10-13T10:31:15;100577.81;;;17.70;100.00
79309;BME280;68767;53.078;7.386;2023-10-13T10:33:45;100562.34;;;17.74;100.00
79309;BME280;68767;53.078;7.386;2023-10-13T10:36:22;100559.25;;;17.76;100.00
79309;BME280;68767;53.078;7.386;2023-10-13T10:38:55;100566.66;;;17.79;100.00
79309;BME280;68767;53.078;7.386;2023-10-13T10:41:27;100564.03;;;17.86;100.00
79309;BME280;68767;53.078;7.386;2023-10-13T10:44:13;100562.53;;;17.92;100.00
79309;BME280;68767;53.078;7.386;2023-10-13T10:46:50;100532.06;;;18.13;100.00
79309;BME280;68767;53.078;7.386;2023-10-13T10:49:28;100525.09;;;18.19;100.00
79309;BME280;68767;53.078;7.386;2023-10-13T10:52:01;100536.09;;;18.33;100.00
79309;BME280;68767;53.078;7.386;2023-10-13T10:54:31;100532.63;;;18.36;100.00
79309;BME280;68767;53.078;7.386;2023-10-13T10:57:01;100521.53;;;18.59;100.00
79309;BME280;68767;53.078;7.386;2023-10-13T10:59:45;100517.84;;;18.89;100.00
79309;BME280;68767;53.078;7.386;2023-10-13T11:02:12;100503.94;;;19.04;100.00
79309;BME280;68767;53.078;7.386;2023-10-13T11:04:50;100517.94;;;19.06;100.00
79309;BME280;68767;53.078;7.386;2023-10-13T11:07:22;100498.50;;;19.04;100.00
79309;BME280;68767;53.078;7.386;2023-10-13T11:09:50;100465.81;;;19.08;100.00
79309;BME280;68767;53.078;7.386;2023-10-13T11:12:19;100454.13;;;18.97;100.00
79309;BME280;68767;53.078;7.386;2023-10-13T11:15:06;100435.81;;;18.94;100.00
79309;BME280;68767;53.078;7.386;2023-10-13T11:17:48;100429.19;;;18.88;100.00
79309;BME280;68767;53.078;7.386;2023-10-13T11:20:19;100423.38;;;19.00;100.00
79309;BME280;68767;53.078;7.386;2023-10-13T11:22:53;100400.81;;;19.03;100.00
79309;BME280;68767;53.078;7.386;2023-10-13T11:27:49;100402.00;;;19.05;100.00
79309;BME280;68767;53.078;7.386;2023-10-13T11:30:17;100400.03;;;18.99;100.00
79309;BME280;68767;53.078;7.386;2023-10-13T11:35:25;100398.09;;;18.99;100.00
79309;BME280;68767;53.078;7.386;2023-10-13T11:37:55;100398.06;;;18.92;100.00
79309;BME280;68767;53.078;7.386;2023-10-13T11:40:23;100403.50;;;18.85;100.00
79309;BME280;68767;53.078;7.386;2023-10-13T11:43:10;100404.69;;;18.95;100.00
79309;BME280;68767;53.078;7.386;2023-10-13T11:45:42;100405.53;;;19.13;100.00
79309;BME280;68767;53.078;7.386;2023-10-13T11:48:29;100413.72;;;19.13;100.00
79309;BME280;68767;53.078;7.386;2023-10-13T11:51:06;100412.50;;;19.00;100.00
79309;BME280;68767;53.078;7.386;2023-10-13T11:53:37;100402.78;;;18.99;100.00
79309;BME280;68767;53.078;7.386;2023-10-13T11:56:05;100405.88;;;18.97;100.00
79309;BME280;68767;53.078;7.386;2023-10-13T11:58:39;100387.63;;;19.05;100.00
79309;BME280;68767;53.078;7.386;2023-10-13T12:01:06;100379.44;;;18.98;100.00
79309;BME280;68767;53.078;7.386;2023-10-13T12:03:40;100349.47;;;18.98;100.00
79309;BME280;68767;53.078;7.386;2023-10-13T12:06:26;100353.03;;;19.13;100.00
79309;BME280;68767;53.078;7.386;2023-10-13T12:09:04;100341.75;;;19.25;100.00
79309;BME280;68767;53.078;7.386;2023-10-13T12:11:48;100342.53;;;19.25;100.00
79309;BME280;68767;53.078;7.386;2023-10-13T12:14:18;100328.13;;;19.39;100.00
79309;BME280;68767;53.078;7.386;2023-10-13T12:16:54;100326.56;;;19.34;100.00
79309;BME280;68767;53.078;7.386;2023-10-13T12:19:23;100314.09;;;19.19;100.00
79309;BME280;68767;53.078;7.386;2023-10-13T12:21:51;100314.13;;;19.30;100.00
79309;BME280;68767;53.078;7.386;2023-10-13T12:24:27;100316.84;;;19.26;100.00
79309;BME280;68767;53.078;7.386;2023-10-13T12:27:04;100327.34;;;19.31;100.00
79309;BME280;68767;53.078;7.386;2023-10-13T12:29:46;100333.59;;;19.28;100.00
79309;BME280;68767;53.078;7.386;2023-10-13T12:32:14;100328.91;;;19.25;100.00
79309;BME280;68767;53.078;7.386;2023-10-13T12:34:48;100323.47;;;19.22;100.00
79309;BME280;68767;53.078;7.386;2023-10-13T12:37:47;100310.22;;;19.17;100.00
79309;BME280;68767;53.078;7.386;2023-10-13T12:40:16;100302.06;;;19.13;100.00
79309;BME280;68767;53.078;7.386;2023-10-13T12:43:02;100299.69;;;18.97;100.00
79309;BME280;68767;53.078;7.386;2023-10-13T12:45:49;100302.81;;;19.03;100.00
79309;BME280;68767;53.078;7.386;2023-10-13T12:48:36;100296.19;;;19.00;100.00
79309;BME280;68767;53.078;7.386;2023-10-13T12:51:22;100296.59;;;18.88;100.00
79309;BME280;68767;53.078;7.386;2023-10-13T12:53:56;100305.09;;;18.72;100.00
79309;BME280;68767;53.078;7.386;2023-10-13T12:56:31;100290.28;;;18.63;100.00
79309;BME280;68767;53.078;7.386;2023-10-13T12:58:58;100297.66;;;18.62;100.00
79309;BME280;68767;53.078;7.386;2023-10-13T13:01:25;100301.53;;;18.65;100.00
79309;BME280;68767;53.078;7.386;2023-10-13T13:03:59;100278.66;;;18.73;100.00
79309;BME280;68767;53.078;7.386;2023-10-13T13:06:30;100288.75;;;18.69;100.00
79309;BME280;68767;53.078;7.386;2023-10-13T13:08:58;100288.00;;;18.79;100.00
79309;BME280;68767;53.078;7.386;2023-10-13T13:11:27;100278.66;;;18.76;100.00
79309;BME280;68767;53.078;7.386;2023-10-13T13:13:57;100268.16;;;18.86;100.00
79309;BME280;68767;53.078;7.386;2023-10-13T13:16:23;100286.88;;;18.98;100.00
79309;BME280;68767;53.078;7.386;2023-10-13T13:18:51;100263.16;;;19.16;100.00
79309;BME280;68767;53.078;7.386;2023-10-13T13:21:18;100263.53;;;19.18;100.00
79309;BME280;68767;53.078;7.386;2023-10-13T13:23:52;100237.84;;;19.30;100.00
79309;BME280;68767;53.078;7.386;2023-10-13T13:26:22;100240.97;;;19.28;100.00
79309;BME280;68767;53.078;7.386;2023-10-13T13:28:50;100227.72;;;19.45;100.00
79309;BME280;68767;53.078;7.386;2023-10-13T13:31:18;100217.56;;;19.52;100.00